Time;durP1;ratioP1;P1;durP2;ratioP2;P2;SDS_P1;SDS_P2;PMS_P1;PMS_P2;Temp;Humidity;BMP_temperature;BMP_pressure;BME280_temperature;BME280_humidity;BME280_pressure;Samples;Min_cycle;Max_cycle;Signal;HPM_P1;HPM_P2
2023/09/16 00:00:09;;;;;;;5.97;3.62;;;13.30;99.90;;;;;;7300593;32;20171;-57
2023/09/16 00:04:11;;;;;;;8.57;3.45;;;13.30;99.90;;;;;;7301812;32;20190;-57
2023/09/16 00:08:13;;;;;;;5.62;3.47;;;13.30;99.90;;;;;;7296044;32;20447;-57
2023/09/16 00:12:15;;;;;;;4.10;3.20;;;13.30;99.90;;;;;;7300272;32;20164;-56
2023/09/16 00:16:16;;;;;;;7.97;3.67;;;13.30;99.90;;;;;;7295056;32;20134;-55
2023/09/16 00:20:18;;;;;;;6.18;3.08;;;13.40;99.90;;;;;;7300068;32;20932;-56
2023/09/16 00:24:20;;;;;;;5.37;3.35;;;13.40;99.90;;;;;;7301211;32;20604;-56
2023/09/16 00:28:25;;;;;;;7.85;3.33;;;13.30;99.90;;;;;;7304929;32;20155;-56
2023/09/16 00:32:28;;;;;;;7.43;3.30;;;13.20;99.90;;;;;;7303965;32;20231;-56
2023/09/16 00:36:29;;;;;;;5.55;3.15;;;13.20;99.90;;;;;;7308880;32;20108;-57
2023/09/16 00:40:31;;;;;;;6.93;3.95;;;13.20;99.90;;;;;;7304086;32;20115;-56
2023/09/16 00:44:33;;;;;;;5.03;3.12;;;13.20;99.90;;;;;;7304018;32;20281;-57
2023/09/16 00:48:35;;;;;;;4.57;3.65;;;13.20;99.90;;;;;;7304851;32;20139;-57
2023/09/16 00:52:41;;;;;;;5.43;3.40;;;13.20;99.90;;;;;;7303929;32;20854;-55
2023/09/16 00:56:43;;;;;;;5.32;3.47;;;13.10;99.90;;;;;;7303608;32;20128;-56
2023/09/16 01:00:46;;;;;;;6.15;3.70;;;13.10;99.90;;;;;;7302811;32;20151;-56
2023/09/16 01:04:50;;;;;;;6.12;3.62;;;13.10;99.90;;;;;;7303117;32;20272;-56
2023/09/16 01:08:52;;;;;;;7.28;3.40;;;13.00;99.90;;;;;;7304660;32;20162;-56
2023/09/16 01:12:55;;;;;;;9.18;3.45;;;13.10;99.90;;;;;;7303258;32;20135;-57
2023/09/16 01:17:05;;;;;;;5.72;3.90;;;13.00;99.90;;;;;;7306220;32;20119;-56
2023/09/16 01:21:08;;;;;;;8.73;3.15;;;13.10;99.90;;;;;;7305750;32;20132;-56
2023/09/16 01:25:10;;;;;;;4.47;3.28;;;13.20;99.90;;;;;;7299799;32;20516;-56
2023/09/16 01:29:13;;;;;;;6.15;3.47;;;13.20;99.90;;;;;;7303890;32;20130;-56
2023/09/16 01:33:29;;;;;;;6.57;3.40;;;13.30;99.90;;;;;;7295770;32;20191;-56
2023/09/16 01:37:31;;;;;;;6.90;3.35;;;13.40;99.90;;;;;;7308515;32;20252;-56
2023/09/16 01:41:34;;;;;;;6.82;3.70;;;13.50;99.90;;;;;;7301957;32;20275;-55
2023/09/16 01:45:43;;;;;;;6.00;3.58;;;13.50;99.90;;;;;;7302518;32;20208;-55
2023/09/16 01:49:45;;;;;;;4.40;3.15;;;13.60;99.90;;;;;;7302250;32;20112;-56
2023/09/16 01:53:47;;;;;;;5.72;3.25;;;13.60;99.90;;;;;;7301546;32;20200;-56
2023/09/16 01:57:48;;;;;;;5.28;3.60;;;13.60;99.90;;;;;;7302247;32;20348;-56
2023/09/16 02:01:50;;;;;;;7.90;3.72;;;13.60;99.90;;;;;;7301680;32;20817;-56
2023/09/16 02:05:52;;;;;;;8.70;3.17;;;13.60;99.90;;;;;;7300386;32;20200;-56
2023/09/16 02:09:53;;;;;;;7.15;3.25;;;13.60;99.90;;;;;;7300334;32;20198;-56
2023/09/16 02:13:55;;;;;;;9.52;2.95;;;13.60;99.90;;;;;;7300155;32;20112;-56
2023/09/16 02:17:57;;;;;;;5.53;3.20;;;13.50;99.90;;;;;;7302349;32;20326;-56
2023/09/16 02:21:59;;;;;;;6.22;3.28;;;13.60;99.90;;;;;;7299610;32;20457;-56
2023/09/16 02:26:01;;;;;;;5.82;3.25;;;13.40;99.90;;;;;;7302836;32;20207;-56
2023/09/16 02:30:04;;;;;;;6.60;3.55;;;13.40;99.90;;;;;;7302548;32;20139;-56
2023/09/16 02:34:05;;;;;;;6.93;3.55;;;13.30;99.90;;;;;;7295891;32;20108;-55
2023/09/16 02:38:08;;;;;;;8.75;3.33;;;13.30;99.90;;;;;;7306787;32;20141;-55
2023/09/16 02:42:09;;;;;;;4.62;3.30;;;13.30;99.90;;;;;;7305769;32;20116;-55
2023/09/16 02:46:11;;;;;;;5.97;3.17;;;13.30;99.90;;;;;;7303089;32;20311;-56
2023/09/16 02:50:13;;;;;;;6.28;3.20;;;13.20;99.90;;;;;;7297174;32;20159;-56
2023/09/16 02:54:15;;;;;;;6.03;3.65;;;13.20;99.90;;;;;;7301383;32;20222;-56
2023/09/16 02:58:16;;;;;;;6.75;3.03;;;13.20;99.90;;;;;;7281770;32;20119;-56
2023/09/16 03:02:18;;;;;;;5.15;2.97;;;13.20;99.90;;;;;;7302558;32;20172;-55
2023/09/16 03:06:22;;;;;;;6.12;3.40;;;13.20;99.90;;;;;;7297282;32;20510;-56
2023/09/16 03:10:24;;;;;;;7.05;3.20;;;13.10;99.90;;;;;;7302666;32;20127;-56
2023/09/16 03:14:26;;;;;;;8.38;3.10;;;13.10;99.90;;;;;;7296729;32;20116;-56
2023/09/16 03:18:27;;;;;;;3.75;3.00;;;13.10;99.90;;;;;;7301303;32;20384;-56
2023/09/16 03:22:29;;;;;;;5.37;3.15;;;13.10;99.90;;;;;;7299916;32;20191;-56
2023/09/16 03:26:31;;;;;;;7.15;3.10;;;13.00;99.90;;;;;;7295852;32;21073;-56
2023/09/16 03:30:33;;;;;;;5.57;3.20;;;12.90;99.90;;;;;;7300027;32;20211;-56
2023/09/16 03:34:34;;;;;;;7.78;3.45;;;12.90;99.90;;;;;;7300373;32;20129;-57
2023/09/16 03:38:47;;;;;;;4.32;2.70;;;12.90;99.90;;;;;;7299332;32;20116;-56
2023/09/16 03:42:49;;;;;;;5.53;3.22;;;12.90;99.90;;;;;;7300271;32;20127;-56
2023/09/16 03:46:51;;;;;;;10.70;3.10;;;12.90;99.90;;;;;;7298615;32;20652;-56
2023/09/16 03:50:53;;;;;;;6.93;3.40;;;12.80;99.90;;;;;;7307506;32;20316;-56
2023/09/16 03:54:55;;;;;;;4.75;3.00;;;12.70;99.90;;;;;;7301561;32;20209;-55
2023/09/16 03:58:57;;;;;;;5.93;3.10;;;12.70;99.90;;;;;;7297799;32;20112;-56
2023/09/16 04:02:58;;;;;;;6.65;3.30;;;12.70;99.90;;;;;;7294761;32;20166;-55
2023/09/16 04:07:00;;;;;;;9.20;3.40;;;12.70;99.90;;;;;;7304577;32;20126;-57
2023/09/16 04:11:02;;;;;;;6.43;3.10;;;12.70;99.90;;;;;;7300440;32;20706;-55
2023/09/16 04:15:07;;;;;;;6.50;3.78;;;12.70;99.90;;;;;;7297957;32;20120;-57
2023/09/16 04:19:08;;;;;;;8.65;3.70;;;12.60;99.90;;;;;;7288016;32;20466;-55
2023/09/16 04:23:10;;;;;;;6.78;3.90;;;12.70;99.90;;;;;;7283640;32;20116;-56
2023/09/16 04:27:12;;;;;;;5.15;3.85;;;12.80;99.90;;;;;;7299537;32;20227;-56
2023/09/16 04:31:14;;;;;;;5.35;4.03;;;12.80;99.90;;;;;;7300546;32;20108;-56
2023/09/16 04:35:16;;;;;;;4.05;3.50;;;12.90;99.90;;;;;;7298492;32;20206;-56
2023/09/16 04:39:18;;;;;;;8.15;3.70;;;12.90;99.90;;;;;;7301203;32;20108;-56
2023/09/16 04:43:20;;;;;;;6.43;4.22;;;12.90;99.90;;;;;;7298797;32;20231;-57
2023/09/16 04:47:22;;;;;;;5.93;3.65;;;12.90;99.90;;;;;;7298136;32;20218;-56
2023/09/16 04:51:24;;;;;;;5.55;3.58;;;12.80;99.90;;;;;;7308093;32;20104;-56
2023/09/16 04:55:26;;;;;;;8.95;3.62;;;12.80;99.90;;;;;;7297647;32;20134;-56
2023/09/16 04:59:32;;;;;;;7.10;3.50;;;12.80;99.90;;;;;;7298920;32;20131;-56
2023/09/16 05:03:34;;;;;;;6.95;4.43;;;12.80;99.90;;;;;;7296103;32;20119;-55
2023/09/16 05:07:36;;;;;;;5.97;3.83;;;12.70;99.90;;;;;;7298045;32;20206;-57
2023/09/16 05:11:37;;;;;;;5.55;3.83;;;12.80;99.90;;;;;;7301170;32;20115;-56
2023/09/16 05:15:39;;;;;;;5.60;3.80;;;12.90;99.90;;;;;;7299520;32;20277;-55
2023/09/16 05:19:41;;;;;;;8.57;4.05;;;12.90;99.90;;;;;;7293696;32;20544;-56
2023/09/16 05:23:42;;;;;;;5.40;3.47;;;12.90;99.90;;;;;;7298211;32;22186;-56
2023/09/16 05:27:46;;;;;;;5.47;4.20;;;12.90;99.90;;;;;;7308227;32;20226;-55
2023/09/16 05:31:48;;;;;;;3.92;3.50;;;13.00;99.90;;;;;;7301229;32;20468;-56
2023/09/16 05:35:50;;;;;;;5.22;3.45;;;12.90;99.90;;;;;;7302426;32;20561;-57
2023/09/16 05:39:52;;;;;;;5.85;4.40;;;12.90;99.90;;;;;;7303697;32;20131;-56
2023/09/16 05:43:54;;;;;;;5.60;3.58;;;12.90;99.90;;;;;;7302930;32;20220;-56
2023/09/16 05:47:55;;;;;;;5.90;3.90;;;12.90;99.90;;;;;;7298842;32;20664;-55
2023/09/16 05:51:57;;;;;;;7.37;4.28;;;12.90;99.90;;;;;;7297927;32;20117;-56
2023/09/16 05:56:06;;;;;;;7.72;4.12;;;12.90;99.90;;;;;;7305988;32;20210;-56
2023/09/16 06:00:08;;;;;;;6.05;4.20;;;13.00;99.90;;;;;;7306054;32;20103;-55
2023/09/16 06:04:10;;;;;;;5.90;4.40;;;13.00;99.90;;;;;;7299062;32;20465;-56
2023/09/16 06:08:13;;;;;;;4.72;3.72;;;13.00;99.90;;;;;;7291152;32;20265;-56
2023/09/16 06:12:15;;;;;;;6.43;3.95;;;13.00;99.90;;;;;;7301792;32;20111;-56
2023/09/16 06:16:17;;;;;;;5.97;3.55;;;13.10;99.90;;;;;;7296674;32;20137;-55
2023/09/16 06:20:19;;;;;;;5.15;4.03;;;13.20;99.90;;;;;;7302457;32;20123;-55
2023/09/16 06:24:21;;;;;;;3.97;3.53;;;13.20;99.90;;;;;;7301407;32;20135;-55
2023/09/16 06:28:23;;;;;;;6.50;3.70;;;13.30;99.90;;;;;;7301639;32;20226;-56
2023/09/16 06:32:25;;;;;;;7.12;3.67;;;13.40;99.90;;;;;;7309830;32;20154;-56
2023/09/16 06:36:27;;;;;;;5.82;4.10;;;13.40;99.90;;;;;;7297527;32;20104;-56
2023/09/16 06:40:28;;;;;;;5.15;3.78;;;13.50;99.90;;;;;;7305254;32;20162;-56
2023/09/16 06:44:30;;;;;;;4.03;3.50;;;13.60;99.90;;;;;;7303812;32;20108;-56
2023/09/16 06:48:32;;;;;;;5.10;3.60;;;13.70;99.90;;;;;;7299300;32;20384;-55
2023/09/16 06:52:34;;;;;;;7.37;4.68;;;13.90;99.90;;;;;;7302653;32;20139;-56
2023/09/16 06:56:36;;;;;;;6.93;4.00;;;13.90;99.90;;;;;;7301932;32;20191;-55
2023/09/16 07:00:37;;;;;;;8.23;4.45;;;14.00;99.90;;;;;;7310313;32;21039;-55
2023/09/16 07:04:42;;;;;;;6.12;4.10;;;14.20;99.90;;;;;;7299073;32;20439;-56
2023/09/16 07:08:44;;;;;;;4.62;4.18;;;14.40;99.90;;;;;;7291673;32;20116;-56
2023/09/16 07:12:46;;;;;;;5.15;4.53;;;14.60;99.90;;;;;;7294928;32;20230;-56
2023/09/16 07:16:48;;;;;;;5.00;4.35;;;14.70;99.90;;;;;;7298021;32;20215;-56
2023/09/16 07:20:50;;;;;;;4.82;4.32;;;14.90;99.90;;;;;;7302023;32;20157;-56
2023/09/16 07:24:52;;;;;;;5.53;4.50;;;15.10;99.90;;;;;;7298855;32;20130;-56
2023/09/16 07:28:53;;;;;;;5.93;4.30;;;15.30;99.90;;;;;;7298314;32;20132;-56
2023/09/16 07:32:55;;;;;;;12.75;11.20;;;15.50;99.90;;;;;;7297282;32;20485;-56
2023/09/16 07:36:58;;;;;;;6.95;5.07;;;15.70;99.90;;;;;;7298043;32;20163;-56
2023/09/16 07:41:00;;;;;;;5.50;4.32;;;16.00;99.90;;;;;;7297490;32;20490;-56
2023/09/16 07:45:03;;;;;;;4.75;4.25;;;16.20;99.90;;;;;;7298068;32;20111;-56
2023/09/16 07:49:05;;;;;;;4.78;3.83;;;16.50;99.90;;;;;;7299986;32;20790;-56
2023/09/16 07:53:07;;;;;;;4.45;4.03;;;16.70;99.90;;;;;;7296837;32;20108;-56
2023/09/16 07:57:08;;;;;;;6.32;4.10;;;16.80;99.90;;;;;;7297815;32;20163;-56
2023/09/16 08:01:10;;;;;;;4.57;3.92;;;17.00;99.90;;;;;;7293592;32;20476;-56
2023/09/16 08:05:12;;;;;;;4.10;3.67;;;17.20;99.90;;;;;;7280366;32;20161;-56
2023/09/16 08:09:14;;;;;;;3.97;3.45;;;17.40;99.90;;;;;;7298421;32;20231;-56
2023/09/16 08:13:17;;;;;;;5.60;3.70;;;17.60;99.90;;;;;;7300621;32;20555;-56
2023/09/16 08:17:19;;;;;;;5.80;3.65;;;17.90;99.90;;;;;;7292394;32;20112;-57
2023/09/16 08:21:20;;;;;;;8.32;3.53;;;18.10;99.90;;;;;;7296517;32;20144;-57
2023/09/16 08:25:24;;;;;;;5.53;3.10;;;18.40;99.90;;;;;;7298937;32;20217;-57
2023/09/16 08:29:26;;;;;;;3.85;3.40;;;18.60;99.90;;;;;;7298312;32;20235;-57
2023/09/16 08:33:27;;;;;;;5.40;3.10;;;19.00;99.90;;;;;;7297046;32;20179;-56
2023/09/16 08:37:29;;;;;;;3.65;2.75;;;19.50;99.90;;;;;;7295789;32;20137;-57
2023/09/16 08:41:47;;;;;;;7.55;3.17;;;20.20;99.90;;;;;;7298951;32;20547;-57
2023/09/16 08:46:00;;;;;;;4.47;2.50;;;21.00;99.90;;;;;;7297360;32;20132;-57
2023/09/16 08:50:09;;;;;;;3.60;2.90;;;21.30;99.90;;;;;;7301818;32;20298;-57
2023/09/16 08:54:12;;;;;;;3.95;2.60;;;21.50;99.90;;;;;;7300397;32;20111;-57
2023/09/16 08:58:15;;;;;;;3.35;2.78;;;21.50;99.90;;;;;;7302855;32;20224;-57
2023/09/16 09:02:17;;;;;;;3.10;2.42;;;21.80;99.90;;;;;;7301089;32;20241;-57
2023/09/16 09:06:21;;;;;;;5.85;2.85;;;21.90;99.90;;;;;;7300599;32;20557;-57
2023/09/16 09:10:40;;;;;;;3.42;2.72;;;21.90;99.90;;;;;;7302462;32;20494;-57
2023/09/16 09:14:42;;;;;;;2.90;2.67;;;22.00;99.90;;;;;;7304167;32;20147;-57
2023/09/16 09:18:46;;;;;;;3.95;2.50;;;22.50;99.90;;;;;;7302761;32;20116;-57
2023/09/16 09:22:51;;;;;;;4.85;2.72;;;22.50;99.90;;;;;;7302740;32;20162;-58
2023/09/16 09:26:52;;;;;;;5.18;3.17;;;22.50;99.90;;;;;;7295650;32;20124;-57
2023/09/16 09:30:56;;;;;;;4.80;3.15;;;22.50;99.90;;;;;;7300918;32;20230;-57
2023/09/16 09:35:05;;;;;;;6.12;3.03;;;22.50;99.90;;;;;;7300860;32;20115;-57
2023/09/16 09:39:08;;;;;;;3.30;3.00;;;22.80;99.90;;;;;;7307220;32;20524;-56
2023/09/16 09:43:10;;;;;;;3.42;2.72;;;23.50;99.90;;;;;;7300363;32;20108;-57
2023/09/16 09:47:15;;;;;;;7.43;3.30;;;23.90;99.90;;;;;;7310704;32;20238;-56
2023/09/16 09:51:19;;;;;;;3.22;2.90;;;24.40;99.90;;;;;;7294601;32;20831;-56
2023/09/16 09:55:28;;;;;;;3.05;2.78;;;24.30;99.90;;;;;;7297176;32;20107;-57
2023/09/16 09:59:30;;;;;;;3.92;2.55;;;24.20;99.90;;;;;;7304222;32;20173;-58
2023/09/16 10:03:33;;;;;;;5.40;2.50;;;24.60;99.90;;;;;;7304686;32;20524;-58
2023/09/16 10:07:35;;;;;;;4.35;2.70;;;25.20;99.90;;;;;;7306984;32;20788;-58
2023/09/16 10:11:38;;;;;;;4.55;2.90;;;25.90;99.90;;;;;;7308887;32;20254;-58
2023/09/16 10:15:40;;;;;;;4.35;2.62;;;26.40;99.90;;;;;;7306725;32;20171;-57
2023/09/16 10:19:43;;;;;;;6.78;3.17;;;26.00;99.90;;;;;;7305469;32;20159;-58
2023/09/16 10:23:47;;;;;;;3.65;3.33;;;26.10;99.90;;;;;;7305283;32;20537;-58
2023/09/16 10:28:05;;;;;;;4.53;3.42;;;26.20;99.90;;;;;;7305921;32;20115;-58
2023/09/16 10:32:07;;;;;;;5.35;2.80;;;26.70;99.90;;;;;;7302018;32;20219;-58
2023/09/16 10:36:11;;;;;;;6.28;2.90;;;26.60;99.90;;;;;;7312629;32;20112;-58
2023/09/16 10:40:13;;;;;;;4.47;2.87;;;25.90;99.90;;;;;;7313040;32;20481;-57
2023/09/16 10:44:16;;;;;;;5.15;3.00;;;25.70;99.90;;;;;;7306157;32;20166;-58
2023/09/16 10:48:17;;;;;;;3.92;3.53;;;26.10;99.90;;;;;;7295869;32;20187;-58
2023/09/16 10:52:25;;;;;;;4.22;3.03;;;26.50;99.90;;;;;;7297230;32;20132;-58
2023/09/16 10:56:32;;;;;;;3.72;2.90;;;26.90;99.90;;;;;;7293050;32;20122;-58
2023/09/16 11:00:41;;;;;;;5.22;3.00;;;27.20;99.90;;;;;;7297684;32;20145;-58
2023/09/16 11:04:42;;;;;;;4.07;3.12;;;27.30;99.90;;;;;;7291140;32;20182;-58
2023/09/16 11:08:44;;;;;;;4.20;3.12;;;26.50;99.90;;;;;;7300464;32;20112;-58
2023/09/16 11:12:47;;;;;;;3.97;3.25;;;26.60;99.90;;;;;;7294934;32;20233;-58
2023/09/16 11:16:50;;;;;;;3.53;2.97;;;27.40;99.90;;;;;;7298230;32;20490;-58
2023/09/16 11:20:53;;;;;;;3.20;2.90;;;27.90;99.90;;;;;;7295891;32;20100;-57
2023/09/16 11:24:55;;;;;;;5.28;3.22;;;28.10;99.90;;;;;;7299618;32;20373;-57
2023/09/16 11:28:57;;;;;;;3.58;3.03;;;28.10;99.90;;;;;;7299331;32;20522;-57
2023/09/16 11:32:58;;;;;;;4.80;2.70;;;28.00;99.90;;;;;;7299635;32;20141;-57
2023/09/16 11:37:01;;;;;;;4.60;2.95;;;27.60;99.90;;;;;;7294139;32;20219;-58
2023/09/16 11:41:09;;;;;;;5.00;2.97;;;27.60;99.90;;;;;;7299151;32;20146;-57
2023/09/16 11:45:14;;;;;;;6.68;3.47;;;27.60;99.90;;;;;;7295754;32;20134;-58
2023/09/16 11:49:16;;;;;;;5.43;3.33;;;27.20;99.90;;;;;;7300856;32;20115;-58
2023/09/16 11:53:18;;;;;;;4.78;2.90;;;26.90;99.90;;;;;;7293379;32;20116;-57
2023/09/16 11:57:20;;;;;;;4.10;3.22;;;27.00;99.90;;;;;;7281304;32;20134;-57
2023/09/16 12:01:29;;;;;;;5.47;3.20;;;26.80;99.90;;;;;;7293547;32;20266;-57
2023/09/16 12:05:31;;;;;;;3.87;3.53;;;26.70;99.90;;;;;;7308612;32;20442;-58
2023/09/16 12:09:33;;;;;;;3.75;3.30;;;26.70;99.90;;;;;;7298810;32;20804;-58
2023/09/16 12:13:35;;;;;;;4.78;3.35;;;26.50;99.90;;;;;;7295388;32;20225;-58
2023/09/16 12:17:37;;;;;;;5.93;3.65;;;26.20;99.90;;;;;;7298231;32;20120;-58
2023/09/16 12:21:48;;;;;;;5.62;4.03;;;26.10;99.90;;;;;;7289048;32;20219;-59
2023/09/16 12:25:50;;;;;;;6.35;4.00;;;26.00;99.90;;;;;;7307802;32;20112;-58
2023/09/16 12:29:52;;;;;;;4.03;3.62;;;25.70;99.90;;;;;;7305641;32;20112;-58
2023/09/16 12:33:54;;;;;;;5.85;4.05;;;26.10;99.90;;;;;;7294547;32;20586;-57
2023/09/16 12:38:00;;;;;;;4.75;3.75;;;26.10;99.90;;;;;;7305363;32;20566;-57
2023/09/16 12:42:03;;;;;;;5.00;3.72;;;26.10;99.90;;;;;;7302235;32;20591;-58
2023/09/16 12:46:22;;;;;;;6.12;3.58;;;26.00;99.90;;;;;;7301320;32;20238;-54
2023/09/16 12:50:26;;;;;;;4.50;3.53;;;26.00;99.90;;;;;;7304225;32;20904;-55
2023/09/16 12:54:31;;;;;;;4.28;3.72;;;26.20;99.90;;;;;;7291931;32;20130;-55
2023/09/16 12:58:41;;;;;;;4.43;3.58;;;26.30;99.90;;;;;;7306004;32;20108;-55
2023/09/16 13:02:42;;;;;;;4.82;4.10;;;26.30;99.90;;;;;;7302713;32;20184;-55
2023/09/16 13:06:45;;;;;;;4.87;4.37;;;26.30;99.90;;;;;;7302432;32;20195;-54
2023/09/16 13:10:50;;;;;;;5.22;3.78;;;26.30;99.90;;;;;;7306838;32;20639;-55
2023/09/16 13:14:52;;;;;;;4.12;3.72;;;26.30;99.90;;;;;;7301413;32;20121;-55
2023/09/16 13:18:54;;;;;;;4.43;3.50;;;26.30;99.90;;;;;;7303021;32;20691;-55
2023/09/16 13:22:57;;;;;;;4.45;3.70;;;26.30;99.90;;;;;;7308583;32;20383;-57
2023/09/16 13:27:00;;;;;;;4.50;3.53;;;26.30;99.90;;;;;;7302297;32;20103;-57
2023/09/16 13:31:02;;;;;;;5.03;3.62;;;26.30;99.90;;;;;;7299382;32;20315;-57
2023/09/16 13:35:04;;;;;;;4.90;4.15;;;26.20;99.90;;;;;;7308050;32;20112;-58
2023/09/16 13:39:10;;;;;;;4.95;3.80;;;26.00;99.90;;;;;;7306235;32;20179;-57
2023/09/16 13:43:12;;;;;;;5.60;3.70;;;25.90;99.90;;;;;;7305784;32;20214;-57
2023/09/16 13:47:15;;;;;;;4.45;3.78;;;25.90;99.90;;;;;;7300659;32;20217;-57
2023/09/16 13:51:18;;;;;;;5.22;4.15;;;25.90;99.90;;;;;;7296157;32;20116;-57
2023/09/16 13:55:20;;;;;;;4.22;3.75;;;25.90;99.90;;;;;;7295619;32;20187;-57
2023/09/16 13:59:22;;;;;;;6.45;3.85;;;25.70;99.90;;;;;;7300596;32;20197;-58
2023/09/16 14:03:24;;;;;;;4.50;3.75;;;25.70;99.90;;;;;;7298738;32;20549;-58
2023/09/16 14:07:26;;;;;;;4.15;3.30;;;25.60;99.90;;;;;;7296799;32;20341;-58
2023/09/16 14:11:27;;;;;;;4.60;3.95;;;25.30;99.90;;;;;;7300318;32;20116;-57
2023/09/16 14:15:29;;;;;;;4.18;3.65;;;25.30;99.90;;;;;;7299501;32;20120;-57
2023/09/16 14:19:31;;;;;;;6.05;4.07;;;25.30;99.90;;;;;;7288377;32;20130;-57
2023/09/16 14:23:33;;;;;;;5.60;3.80;;;25.30;99.90;;;;;;7297568;32;20226;-57
2023/09/16 14:27:34;;;;;;;6.93;4.10;;;25.30;99.90;;;;;;7303968;32;20183;-57
2023/09/16 14:31:36;;;;;;;4.57;4.18;;;25.30;99.90;;;;;;7299471;32;20846;-57
2023/09/16 14:35:38;;;;;;;6.18;4.45;;;25.10;99.90;;;;;;7301716;32;20108;-58
2023/09/16 14:39:40;;;;;;;5.93;3.80;;;25.10;99.90;;;;;;7296323;32;20199;-59
2023/09/16 14:43:41;;;;;;;5.90;5.35;;;25.10;99.90;;;;;;7302292;32;20136;-58
2023/09/16 14:47:43;;;;;;;5.03;4.40;;;25.00;99.90;;;;;;7304759;32;20129;-57
2023/09/16 14:51:47;;;;;;;7.43;6.72;;;24.90;99.90;;;;;;7302113;32;20169;-58
2023/09/16 14:55:49;;;;;;;12.10;10.82;;;24.90;99.90;;;;;;7303382;32;20208;-58
2023/09/16 14:59:50;;;;;;;7.00;6.30;;;24.90;99.90;;;;;;7305310;32;20258;-58
2023/09/16 15:03:52;;;;;;;6.75;5.72;;;24.90;99.90;;;;;;7298649;32;20577;-58
2023/09/16 15:07:54;;;;;;;4.75;3.80;;;24.90;99.90;;;;;;7291755;32;20217;-59
2023/09/16 15:11:57;;;;;;;4.70;3.35;;;24.80;99.90;;;;;;7299651;32;20233;-58
2023/09/16 15:15:58;;;;;;;5.55;5.05;;;24.80;99.90;;;;;;7301719;32;20161;-58
2023/09/16 15:20:00;;;;;;;3.53;3.22;;;24.80;99.90;;;;;;7298437;32;20215;-59
2023/09/16 15:24:02;;;;;;;6.68;4.55;;;24.50;99.90;;;;;;7295641;32;20602;-59
2023/09/16 15:28:05;;;;;;;6.87;5.47;;;24.60;99.90;;;;;;7307217;32;20103;-58
2023/09/16 15:32:06;;;;;;;7.05;6.00;;;24.40;99.90;;;;;;7297123;32;20253;-58
2023/09/16 15:36:11;;;;;;;7.60;6.25;;;24.50;99.90;;;;;;7299478;32;20113;-59
2023/09/16 15:40:13;;;;;;;7.18;6.35;;;24.40;99.90;;;;;;7288064;32;20694;-58
2023/09/16 15:44:15;;;;;;;7.78;6.07;;;24.50;99.90;;;;;;7294676;32;20127;-57
2023/09/16 15:48:16;;;;;;;6.75;5.90;;;24.30;99.90;;;;;;7298051;32;20673;-56
2023/09/16 15:52:19;;;;;;;6.90;5.43;;;24.10;99.90;;;;;;7298338;32;20521;-58
2023/09/16 15:56:21;;;;;;;6.85;4.90;;;24.00;99.90;;;;;;7302513;32;20702;-57
2023/09/16 16:00:23;;;;;;;5.62;5.00;;;24.10;99.90;;;;;;7297508;32;20227;-57
2023/09/16 16:04:24;;;;;;;5.82;4.53;;;23.90;99.90;;;;;;7299534;32;20164;-57
2023/09/16 16:08:26;;;;;;;8.43;6.15;;;23.80;99.90;;;;;;7299760;32;20203;-56
2023/09/16 16:12:28;;;;;;;11.65;5.53;;;23.90;99.90;;;;;;7302261;32;20108;-56
2023/09/16 16:16:32;;;;;;;7.87;5.70;;;23.80;99.90;;;;;;7294889;32;20509;-57
2023/09/16 16:20:37;;;;;;;6.12;5.50;;;23.80;99.90;;;;;;7298200;32;20141;-56
2023/09/16 16:24:39;;;;;;;7.55;6.37;;;23.60;99.90;;;;;;7292786;32;20134;-57
2023/09/16 16:28:40;;;;;;;10.38;6.10;;;23.50;99.90;;;;;;7303051;32;20139;-57
2023/09/16 16:32:43;;;;;;;7.53;6.65;;;23.40;99.90;;;;;;7298518;32;20130;-57
2023/09/16 16:36:44;;;;;;;8.07;7.20;;;23.30;99.90;;;;;;7296951;32;20131;-57
2023/09/16 16:40:46;;;;;;;9.65;7.75;;;23.20;99.90;;;;;;7313441;32;20108;-57
2023/09/16 16:44:48;;;;;;;12.00;8.77;;;23.00;99.90;;;;;;7302833;32;20127;-57
2023/09/16 16:48:50;;;;;;;8.57;6.20;;;22.80;99.90;;;;;;7298747;32;20123;-58
2023/09/16 16:52:51;;;;;;;11.38;6.12;;;22.70;99.90;;;;;;7306953;32;20136;-58
2023/09/16 16:56:53;;;;;;;7.18;5.55;;;22.70;99.90;;;;;;7303770;32;20513;-57
2023/09/16 17:00:55;;;;;;;10.02;6.82;;;22.50;99.90;;;;;;7305249;32;20104;-57
2023/09/16 17:04:57;;;;;;;7.28;6.50;;;22.30;99.90;;;;;;7312072;32;20186;-58
2023/09/16 17:09:00;;;;;;;7.22;6.32;;;22.20;99.90;;;;;;7310904;32;20113;-57
2023/09/16 17:13:03;;;;;;;9.18;6.32;;;22.20;99.90;;;;;;7309043;32;20127;-57
2023/09/16 17:17:05;;;;;;;5.90;5.03;;;22.00;99.90;;;;;;7306245;32;20171;-57
2023/09/16 17:21:07;;;;;;;6.60;5.90;;;21.80;99.90;;;;;;7307154;32;20210;-57
2023/09/16 17:25:09;;;;;;;8.02;5.95;;;21.80;99.90;;;;;;7305608;32;20113;-57
2023/09/16 17:29:10;;;;;;;7.90;5.43;;;21.70;99.90;;;;;;7299422;32;20576;-57
2023/09/16 17:33:12;;;;;;;5.43;4.85;;;21.70;99.90;;;;;;7299203;32;20605;-58
2023/09/16 17:37:14;;;;;;;8.98;5.20;;;21.50;99.90;;;;;;7301445;32;20213;-55
2023/09/16 17:41:18;;;;;;;11.75;6.87;;;21.40;99.90;;;;;;7295313;32;20130;-56
2023/09/16 17:45:19;;;;;;;19.33;8.32;;;21.50;99.90;;;;;;7299186;32;20807;-57
2023/09/16 17:49:21;;;;;;;9.90;7.30;;;21.50;99.90;;;;;;7297025;32;20660;-56
2023/09/16 17:53:24;;;;;;;10.80;7.00;;;21.10;99.90;;;;;;7299329;32;20230;-56
2023/09/16 17:57:26;;;;;;;10.93;6.50;;;20.80;99.90;;;;;;7299799;32;20150;-55
2023/09/16 18:01:29;;;;;;;10.25;8.02;;;20.50;99.90;;;;;;7288780;32;20422;-55
2023/09/16 18:05:31;;;;;;;8.52;7.40;;;20.20;99.90;;;;;;7303812;32;20187;-56
2023/09/16 18:09:33;;;;;;;9.35;7.75;;;20.00;99.90;;;;;;7299014;32;20179;-55
2023/09/16 18:13:35;;;;;;;15.77;9.57;;;19.80;99.90;;;;;;7302469;32;20104;-56
2023/09/16 18:17:37;;;;;;;10.60;9.43;;;19.90;99.90;;;;;;7306913;32;20947;-55
2023/09/16 18:21:39;;;;;;;11.18;9.45;;;19.70;99.90;;;;;;7299619;32;20130;-55
2023/09/16 18:25:49;;;;;;;17.48;11.00;;;19.70;99.90;;;;;;7301585;32;20172;-56
2023/09/16 18:29:51;;;;;;;14.02;11.90;;;19.60;99.90;;;;;;7303135;32;20140;-57
2023/09/16 18:33:53;;;;;;;16.00;12.30;;;19.50;99.90;;;;;;7301819;32;20249;-56
2023/09/16 18:37:54;;;;;;;17.62;12.20;;;19.20;99.90;;;;;;7299413;32;20112;-55
2023/09/16 18:42:14;;;;;;;16.05;11.95;;;19.20;99.90;;;;;;7307049;32;20099;-57
2023/09/16 18:46:16;;;;;;;15.48;10.30;;;19.10;99.90;;;;;;7295193;32;20108;-56
2023/09/16 18:50:18;;;;;;;14.50;10.60;;;19.10;99.90;;;;;;7298202;32;20569;-56
2023/09/16 18:54:20;;;;;;;15.27;9.90;;;19.10;99.90;;;;;;7299969;32;20131;-57
2023/09/16 18:58:22;;;;;;;12.95;10.35;;;19.10;99.90;;;;;;7300974;32;20477;-58
2023/09/16 19:02:24;;;;;;;16.92;11.68;;;19.10;99.90;;;;;;7291814;32;20300;-57
2023/09/16 19:06:25;;;;;;;13.38;10.20;;;19.10;99.90;;;;;;7294833;32;20214;-56
2023/09/16 19:10:27;;;;;;;13.57;9.40;;;19.10;99.90;;;;;;7300175;32;20758;-56
2023/09/16 19:14:29;;;;;;;13.85;9.73;;;19.10;99.90;;;;;;7298867;32;20757;-56
2023/09/16 19:18:31;;;;;;;11.70;9.68;;;19.00;99.90;;;;;;7293359;32;20115;-57
2023/09/16 19:22:33;;;;;;;10.13;9.13;;;19.00;99.90;;;;;;7300174;32;20209;-56
2023/09/16 19:26:35;;;;;;;12.48;9.80;;;19.00;99.90;;;;;;7307322;32;20179;-56
2023/09/16 19:30:37;;;;;;;11.25;9.23;;;19.00;99.90;;;;;;7298064;32;20241;-58
2023/09/16 19:34:39;;;;;;;12.05;10.32;;;19.00;99.90;;;;;;7297461;32;20112;-56
2023/09/16 19:38:41;;;;;;;12.18;9.65;;;19.00;99.90;;;;;;7289200;32;20108;-56
2023/09/16 19:42:43;;;;;;;10.13;8.32;;;18.90;99.90;;;;;;7297298;32;20215;-55
2023/09/16 19:46:44;;;;;;;15.10;10.32;;;18.90;99.90;;;;;;7284856;32;20510;-55
2023/09/16 19:50:57;;;;;;;11.10;9.10;;;18.90;99.90;;;;;;7298124;32;20135;-55
2023/09/16 19:54:59;;;;;;;13.52;11.30;;;18.90;99.90;;;;;;7301965;32;20112;-55
2023/09/16 19:59:01;;;;;;;12.55;10.32;;;18.90;99.90;;;;;;7297982;32;20519;-56
2023/09/16 20:03:07;;;;;;;13.93;10.70;;;18.80;99.90;;;;;;7295786;32;20248;-55
2023/09/16 20:07:10;;;;;;;11.88;9.45;;;18.80;99.90;;;;;;7285008;32;20183;-55
2023/09/16 20:11:12;;;;;;;12.85;9.52;;;18.80;99.90;;;;;;7297834;32;20379;-55
2023/09/16 20:15:14;;;;;;;10.73;9.18;;;18.80;99.90;;;;;;7301941;32;20107;-55
2023/09/16 20:19:18;;;;;;;13.85;9.63;;;18.80;99.90;;;;;;7297165;32;20255;-55
2023/09/16 20:23:20;;;;;;;25.80;9.88;;;18.70;99.90;;;;;;7304366;32;20783;-55
2023/09/16 20:27:22;;;;;;;12.27;10.48;;;18.70;99.90;;;;;;7304419;32;20168;-55
2023/09/16 20:31:24;;;;;;;16.15;10.60;;;18.70;99.90;;;;;;7295712;32;20147;-56
2023/09/16 20:35:26;;;;;;;12.25;10.02;;;18.60;99.90;;;;;;7303488;32;20115;-55
2023/09/16 20:39:27;;;;;;;11.70;10.30;;;18.60;99.90;;;;;;7298658;32;20285;-55
2023/09/16 20:43:29;;;;;;;13.98;12.02;;;18.60;99.90;;;;;;7303413;32;20291;-55
2023/09/16 20:47:31;;;;;;;14.85;11.93;;;18.60;99.90;;;;;;7299695;32;20948;-54
2023/09/16 20:51:33;;;;;;;14.70;11.27;;;18.50;99.90;;;;;;7298855;32;20240;-55
2023/09/16 20:55:34;;;;;;;16.42;13.35;;;18.50;99.90;;;;;;7305496;32;20267;-55